createdAt,value
2018-03-08T00:04:29.931Z,43.77
2018-03-08T00:09:32.400Z,57.50
2018-03-08T00:14:34.873Z,58.50
2018-03-08T00:19:37.348Z,41.40
2018-03-08T00:24:39.824Z,55.77
2018-03-08T00:29:42.334Z,44.70
2018-03-08T00:34:44.870Z,40.60
2018-03-08T00:39:47.360Z,59.37
2018-03-08T00:44:49.911Z,60.20
2018-03-08T00:49:52.360Z,54.27
2018-03-08T00:54:54.826Z,52.20
2018-03-08T00:59:57.283Z,57.00
2018-03-08T01:04:59.752Z,41.40
2018-03-08T01:10:02.225Z,58.63
2018-03-08T01:15:04.705Z,46.23
2018-03-08T01:20:07.166Z,44.97
2018-03-08T01:25:09.648Z,61.27
2018-03-08T01:30:12.146Z,50.17
2018-03-08T01:35:14.636Z,53.00
2018-03-08T01:40:17.151Z,52.77
2018-03-08T01:45:19.636Z,56.43
2018-03-08T01:50:22.117Z,56.47
2018-03-08T01:55:24.585Z,48.60
2018-03-08T02:00:27.038Z,61.27
2018-03-08T02:05:29.513Z,54.30
2018-03-08T02:10:31.968Z,58.53
2018-03-08T02:15:34.445Z,48.43
2018-03-08T02:20:36.900Z,53.13
2018-03-08T02:25:39.344Z,52.67
2018-03-08T02:30:41.852Z,53.67
2018-03-08T02:35:44.327Z,44.50
2018-03-08T02:40:46.777Z,45.50
2018-03-08T02:45:49.273Z,45.17
2018-03-08T02:50:51.760Z,52.17
2018-03-08T02:55:54.250Z,52.50
2018-03-08T03:00:56.705Z,51.83
2018-03-08T03:05:59.169Z,52.53
2018-03-08T03:11:01.639Z,55.97
2018-03-08T03:16:04.101Z,65.77
2018-03-08T03:21:06.571Z,61.67
2018-03-08T03:26:09.044Z,57.47
2018-03-08T03:31:11.520Z,48.70
2018-03-08T03:36:13.994Z,61.20
2018-03-08T03:41:16.492Z,59.73
2018-03-08T03:46:18.967Z,59.13
2018-03-08T03:51:21.409Z,63.13
2018-03-08T03:56:23.909Z,63.10
2018-03-08T04:01:26.476Z,61.00
2018-03-08T04:06:29.138Z,56.37
2018-03-08T04:11:31.606Z,64.47
2018-03-08T04:16:34.068Z,56.63
2018-03-08T04:21:36.533Z,59.77
2018-03-08T04:26:39.006Z,60.97
2018-03-08T04:31:41.474Z,60.60
2018-03-08T04:36:43.965Z,58.50
2018-03-08T04:41:46.449Z,58.43
2018-03-08T04:46:48.946Z,56.57
2018-03-08T04:51:51.399Z,54.07
2018-03-08T04:56:53.861Z,53.40
2018-03-08T05:01:56.318Z,54.43
2018-03-08T05:06:58.841Z,54.40
2018-03-08T05:12:01.303Z,59.70
2018-03-08T05:17:03.768Z,58.77
2018-03-08T05:22:06.225Z,44.20
2018-03-08T05:27:08.721Z,50.60
2018-03-08T05:32:11.304Z,49.87
2018-03-08T05:37:13.827Z,49.50
2018-03-08T05:42:16.328Z,46.03
2018-03-08T05:47:18.807Z,48.00
2018-03-08T05:52:21.290Z,50.93
2018-03-08T05:57:23.794Z,48.70
2018-03-08T06:02:26.244Z,48.67
2018-03-08T06:07:28.688Z,45.67
2018-03-08T06:12:31.151Z,45.10
2018-03-08T06:17:34.747Z,37.17
2018-03-08T06:22:37.330Z,39.23
2018-03-08T06:27:39.802Z,37.57
2018-03-08T06:32:42.303Z,34.93
2018-03-08T06:37:44.840Z,31.23
2018-03-08T06:42:47.375Z,27.87
2018-03-08T06:47:49.863Z,25.57
2018-03-08T06:52:52.335Z,25.17
2018-03-08T06:57:55.609Z,22.97
2018-03-08T07:02:58.069Z,23.13
2018-03-08T07:08:00.665Z,21.50
2018-03-08T07:13:03.246Z,20.47
2018-03-08T07:18:05.721Z,20.63
2018-03-08T07:23:08.214Z,20.73
2018-03-08T07:28:10.671Z,21.00
2018-03-08T07:33:13.170Z,19.47
2018-03-08T07:38:15.636Z,19.50
2018-03-08T07:43:18.154Z,20.63
2018-03-08T07:48:20.624Z,19.57
2018-03-08T07:53:23.127Z,18.40
2018-03-08T07:58:25.612Z,19.20
2018-03-08T08:03:28.071Z,18.60
2018-03-08T08:14:08.454Z,18.17
2018-03-08T08:19:10.915Z,17.40
2018-03-08T08:24:13.794Z,17.77
2018-03-08T08:29:16.254Z,16.83
2018-03-08T08:34:18.768Z,15.53
2018-03-08T08:39:21.255Z,14.70
2018-03-08T08:44:23.839Z,14.70
2018-03-08T08:49:26.324Z,14.27
2018-03-08T08:54:28.788Z,13.37
2018-03-08T08:59:31.279Z,13.63
2018-03-08T09:04:34.860Z,13.07
2018-03-08T09:09:37.328Z,12.10
2018-03-08T09:14:39.794Z,12.20
2018-03-08T09:19:42.272Z,12.27
2018-03-08T09:24:44.741Z,12.07
2018-03-08T09:29:47.230Z,11.93
2018-03-08T09:34:49.728Z,13.50
2018-03-08T09:39:52.195Z,14.47
2018-03-08T09:44:54.649Z,16.20
2018-03-08T09:49:57.239Z,15.43
2018-03-08T09:54:59.706Z,15.60
2018-03-08T10:00:02.184Z,16.70
2018-03-08T10:05:04.639Z,16.33
2018-03-08T10:10:07.152Z,16.57
2018-03-08T10:15:09.615Z,16.37
2018-03-08T10:20:12.068Z,15.67
2018-03-08T10:25:14.550Z,18.43
2018-03-08T10:30:17.031Z,16.90
2018-03-08T10:35:19.557Z,16.97
2018-03-08T10:40:22.079Z,18.40
2018-03-08T10:45:24.581Z,18.63
2018-03-08T10:50:28.227Z,18.80
2018-03-08T10:55:30.663Z,18.57
2018-03-08T11:00:38.899Z,15.93
2018-03-08T11:05:47.414Z,18.23
2018-03-08T11:10:49.840Z,17.53
2018-03-08T11:15:52.433Z,17.97
2018-03-08T11:20:54.910Z,15.93
2018-03-08T11:25:57.374Z,13.93
2018-03-08T11:30:59.830Z,14.40
2018-03-08T11:36:02.305Z,13.53
2018-03-08T11:41:04.768Z,12.77
2018-03-08T11:46:07.244Z,13.77
2018-03-08T11:51:09.730Z,13.53
2018-03-08T11:56:12.199Z,13.80
2018-03-08T12:01:14.666Z,14.60
2018-03-08T12:06:17.223Z,14.27
2018-03-08T12:11:19.690Z,14.83
2018-03-08T12:16:22.178Z,15.43
2018-03-08T12:21:24.749Z,14.77
2018-03-08T12:26:27.273Z,14.80
2018-03-08T12:31:29.770Z,14.47
2018-03-08T12:36:32.244Z,13.43
2018-03-08T12:41:34.706Z,14.80
2018-03-08T12:46:37.193Z,14.40
2018-03-08T12:51:39.730Z,13.83
2018-03-08T12:56:42.208Z,13.23
2018-03-08T13:01:44.688Z,12.00
2018-03-08T13:06:47.142Z,11.37
2018-03-08T13:11:49.700Z,11.47
2018-03-08T13:16:52.193Z,10.20
2018-03-08T13:21:54.694Z,10.57
2018-03-08T13:26:57.178Z,10.33
2018-03-08T13:31:59.683Z,8.90
2018-03-08T13:37:02.182Z,8.63
2018-03-08T13:42:04.682Z,8.70
2018-03-08T13:47:07.169Z,8.10
2018-03-08T13:52:09.681Z,7.50
2018-03-08T13:57:12.978Z,7.63
2018-03-08T14:02:15.487Z,6.30
2018-03-08T14:07:17.932Z,5.07
2018-03-08T14:12:20.461Z,4.97
2018-03-08T14:17:22.933Z,4.90
2018-03-08T14:22:25.387Z,4.20
2018-03-08T14:27:27.854Z,3.83
2018-03-08T14:32:30.326Z,3.23
2018-03-08T14:37:32.794Z,3.17
2018-03-08T14:42:35.255Z,2.97
2018-03-08T14:47:37.875Z,2.93
2018-03-08T14:52:40.357Z,2.50
2018-03-08T14:57:42.826Z,2.20
2018-03-08T15:02:45.324Z,2.20
2018-03-08T15:07:47.769Z,2.00
2018-03-08T15:12:50.260Z,2.23
2018-03-08T15:17:52.729Z,2.00
2018-03-08T15:22:55.210Z,1.90
2018-03-08T15:27:57.717Z,1.60
2018-03-08T15:33:00.190Z,1.60
2018-03-08T15:38:02.642Z,2.10
2018-03-08T15:43:05.113Z,2.10
2018-03-08T15:48:07.567Z,2.13
2018-03-08T15:53:10.044Z,1.83
2018-03-08T15:58:12.563Z,2.57
2018-03-08T16:03:15.082Z,2.13
2018-03-08T16:14:04.933Z,2.90
2018-03-08T16:19:07.396Z,2.70
2018-03-08T16:24:09.871Z,2.80
2018-03-08T16:29:12.420Z,3.10
2018-03-08T16:34:14.862Z,3.30
2018-03-08T16:39:17.345Z,3.57
2018-03-08T16:44:19.828Z,3.87
2018-03-08T16:49:22.402Z,3.43
2018-03-08T16:54:24.924Z,3.90
2018-03-08T16:59:27.401Z,3.90
2018-03-08T17:04:29.921Z,3.87
2018-03-08T17:09:33.220Z,3.93
2018-03-08T17:14:36.067Z,3.50
2018-03-08T17:19:38.519Z,4.07
2018-03-08T17:24:41.465Z,4.80
2018-03-08T17:29:44.229Z,6.03
2018-03-08T17:34:46.727Z,6.03
2018-03-08T17:39:50.298Z,5.60
2018-03-08T17:44:54.743Z,5.23
2018-03-08T17:49:57.258Z,5.20
2018-03-08T17:54:59.763Z,4.30
2018-03-08T18:00:02.252Z,5.20
2018-03-08T18:05:04.711Z,5.10
2018-03-08T18:10:07.195Z,4.83
2018-03-08T18:15:09.680Z,4.67
2018-03-08T18:20:12.192Z,5.67
2018-03-08T18:25:14.658Z,4.87
2018-03-08T18:30:17.141Z,4.53
2018-03-08T18:35:19.605Z,4.37
2018-03-08T18:40:22.110Z,4.50
2018-03-08T18:45:24.592Z,4.60
2018-03-08T18:50:27.090Z,4.00
2018-03-08T18:55:29.541Z,4.20
2018-03-08T19:00:32.045Z,3.90
2018-03-08T19:05:34.494Z,4.10
2018-03-08T19:10:36.988Z,4.10
2018-03-08T19:15:39.508Z,3.60
2018-03-08T19:20:41.971Z,4.03
2018-03-08T19:25:44.444Z,3.37
2018-03-08T19:30:46.946Z,3.40
2018-03-08T19:35:49.442Z,3.30
2018-03-08T19:40:51.910Z,3.63
2018-03-08T19:45:54.568Z,3.40
2018-03-08T19:50:57.028Z,3.00
2018-03-08T19:55:59.536Z,3.40
2018-03-08T20:01:02.258Z,3.40
2018-03-08T20:06:04.724Z,3.47
2018-03-08T20:11:07.202Z,2.93
2018-03-08T20:16:09.742Z,3.30
2018-03-08T20:21:12.233Z,3.40
2018-03-08T20:26:14.696Z,3.40
2018-03-08T20:31:17.165Z,2.60
2018-03-08T20:36:19.653Z,2.90
2018-03-08T20:41:22.161Z,3.00
2018-03-08T20:46:24.779Z,3.03
2018-03-08T20:51:27.238Z,3.13
2018-03-08T20:56:29.710Z,3.27
2018-03-08T21:01:32.146Z,3.27
2018-03-08T21:06:34.620Z,3.03
2018-03-08T21:11:37.085Z,3.37
2018-03-08T21:16:39.533Z,3.00
2018-03-08T21:21:42.012Z,3.10
2018-03-08T21:26:44.469Z,2.97
2018-03-08T21:31:46.955Z,3.30
2018-03-08T21:36:49.415Z,3.50
2018-03-08T21:41:51.918Z,3.40
2018-03-08T21:46:54.414Z,3.20
2018-03-08T21:51:56.879Z,3.77
2018-03-08T21:56:59.384Z,3.60
2018-03-08T22:02:01.827Z,4.10
2018-03-08T22:07:04.301Z,4.07
2018-03-08T22:12:07.675Z,4.10
2018-03-08T22:17:10.112Z,4.43
2018-03-08T22:22:12.599Z,4.47
2018-03-08T22:27:15.037Z,5.17
2018-03-08T22:32:17.492Z,4.70
2018-03-08T22:37:19.967Z,5.37
2018-03-08T22:42:22.459Z,6.10
2018-03-08T22:47:25.034Z,7.07
2018-03-08T22:52:27.542Z,8.63
2018-03-08T22:57:30.032Z,6.90
2018-03-08T23:02:33.384Z,4.63
2018-03-08T23:07:35.865Z,4.40
2018-03-08T23:12:38.321Z,4.70
2018-03-08T23:17:40.788Z,3.10
2018-03-08T23:22:43.260Z,3.17
2018-03-08T23:27:45.755Z,3.27
2018-03-08T23:32:48.237Z,2.43
2018-03-08T23:37:50.677Z,2.73
2018-03-08T23:42:53.137Z,3.10
2018-03-08T23:47:55.623Z,3.17
2018-03-08T23:52:58.101Z,3.60
2018-03-08T23:58:00.559Z,3.50
